sensor_id;sensor_type;location;lat;lon;timestamp;P1;durP1;ratioP1;P2;durP2;ratioP2
26391;SDS011;14572;43.120;1.178;2023-07-20T06:01:03;13.70;;;5.63;;
26391;SDS011;14572;43.120;1.178;2023-07-20T06:03:31;8.82;;;5.95;;
26391;SDS011;14572;43.120;1.178;2023-07-20T06:05:59;11.05;;;5.85;;
26391;SDS011;14572;43.120;1.178;2023-07-20T06:08:27;11.55;;;6.55;;
26391;SDS011;14572;43.120;1.178;2023-07-20T06:10:54;9.63;;;5.93;;
26391;SDS011;14572;43.120;1.178;2023-07-20T06:13:21;11.90;;;6.18;;
26391;SDS011;14572;43.120;1.178;2023-07-20T06:15:50;11.32;;;6.47;;
26391;SDS011;14572;43.120;1.178;2023-07-20T06:18:17;11.98;;;6.20;;
26391;SDS011;14572;43.120;1.178;2023-07-20T06:20:48;13.52;;;6.72;;
26391;SDS011;14572;43.120;1.178;2023-07-20T06:23:16;10.38;;;6.50;;
26391;SDS011;14572;43.120;1.178;2023-07-20T06:25:42;11.77;;;6.03;;
26391;SDS011;14572;43.120;1.178;2023-07-20T06:28:10;10.82;;;6.10;;
26391;SDS011;14572;43.120;1.178;2023-07-20T06:30:37;10.45;;;6.18;;
26391;SDS011;14572;43.120;1.178;2023-07-20T06:33:06;9.00;;;5.93;;
26391;SDS011;14572;43.120;1.178;2023-07-20T06:35:33;8.90;;;6.20;;
26391;SDS011;14572;43.120;1.178;2023-07-20T06:38:00;12.40;;;6.47;;
26391;SDS011;14572;43.120;1.178;2023-07-20T06:40:29;10.02;;;5.78;;
26391;SDS011;14572;43.120;1.178;2023-07-20T06:42:56;12.52;;;6.10;;
26391;SDS011;14572;43.120;1.178;2023-07-20T06:45:23;10.00;;;6.05;;
26391;SDS011;14572;43.120;1.178;2023-07-20T06:47:50;11.13;;;6.03;;
26391;SDS011;14572;43.120;1.178;2023-07-20T06:50:19;11.52;;;6.30;;
26391;SDS011;14572;43.120;1.178;2023-07-20T06:52:46;12.88;;;5.72;;
26391;SDS011;14572;43.120;1.178;2023-07-20T06:55:13;9.23;;;5.47;;
26391;SDS011;14572;43.120;1.178;2023-07-20T06:57:40;9.88;;;5.47;;
26391;SDS011;14572;43.120;1.178;2023-07-20T07:00:08;8.40;;;4.95;;
26391;SDS011;14572;43.120;1.178;2023-07-20T07:02:36;11.07;;;5.60;;
26391;SDS011;14572;43.120;1.178;2023-07-20T07:05:03;9.88;;;5.38;;
26391;SDS011;14572;43.120;1.178;2023-07-20T07:07:33;7.35;;;5.03;;
26391;SDS011;14572;43.120;1.178;2023-07-20T07:10:00;11.18;;;5.45;;
26391;SDS011;14572;43.120;1.178;2023-07-20T07:12:29;7.80;;;5.30;;
26391;SDS011;14572;43.120;1.178;2023-07-20T07:14:56;7.43;;;5.10;;
26391;SDS011;14572;43.120;1.178;2023-07-20T07:17:25;10.68;;;5.10;;
26391;SDS011;14572;43.120;1.178;2023-07-20T07:19:52;6.70;;;4.32;;
26391;SDS011;14572;43.120;1.178;2023-07-20T07:22:20;9.60;;;4.50;;
26391;SDS011;14572;43.120;1.178;2023-07-20T07:24:48;8.48;;;4.78;;
26391;SDS011;14572;43.120;1.178;2023-07-20T07:27:15;8.95;;;4.43;;
26391;SDS011;14572;43.120;1.178;2023-07-20T07:29:42;5.97;;;4.43;;
26391;SDS011;14572;43.120;1.178;2023-07-20T07:32:10;9.02;;;4.50;;
26391;SDS011;14572;43.120;1.178;2023-07-20T07:34:37;6.20;;;4.07;;
26391;SDS011;14572;43.120;1.178;2023-07-20T07:37:04;8.38;;;4.47;;
26391;SDS011;14572;43.120;1.178;2023-07-20T07:39:31;7.00;;;4.40;;
26391;SDS011;14572;43.120;1.178;2023-07-20T07:42:00;13.02;;;4.30;;
26391;SDS011;14572;43.120;1.178;2023-07-20T07:44:27;8.50;;;4.50;;
26391;SDS011;14572;43.120;1.178;2023-07-20T07:46:54;8.80;;;4.05;;
26391;SDS011;14572;43.120;1.178;2023-07-20T07:49:21;6.93;;;4.38;;
26391;SDS011;14572;43.120;1.178;2023-07-20T07:51:48;8.10;;;4.43;;
26391;SDS011;14572;43.120;1.178;2023-07-20T07:54:15;8.40;;;4.32;;
26391;SDS011;14572;43.120;1.178;2023-07-20T07:56:42;5.20;;;3.97;;
26391;SDS011;14572;43.120;1.178;2023-07-20T07:59:11;7.47;;;4.18;;
26391;SDS011;14572;43.120;1.178;2023-07-20T08:01:38;7.97;;;4.03;;
26391;SDS011;14572;43.120;1.178;2023-07-20T08:04:05;6.28;;;3.80;;
26391;SDS011;14572;43.120;1.178;2023-07-20T08:06:32;6.43;;;3.63;;
26391;SDS011;14572;43.120;1.178;2023-07-20T08:08:59;10.85;;;4.18;;
26391;SDS011;14572;43.120;1.178;2023-07-20T08:11:27;8.02;;;3.88;;
26391;SDS011;14572;43.120;1.178;2023-07-20T08:13:55;5.70;;;3.47;;
26391;SDS011;14572;43.120;1.178;2023-07-20T08:16:24;8.10;;;4.13;;
26391;SDS011;14572;43.120;1.178;2023-07-20T08:18:51;7.47;;;3.75;;
26391;SDS011;14572;43.120;1.178;2023-07-20T08:21:18;7.50;;;4.20;;
26391;SDS011;14572;43.120;1.178;2023-07-20T08:23:45;5.57;;;3.90;;
26391;SDS011;14572;43.120;1.178;2023-07-20T08:26:12;6.97;;;4.03;;
26391;SDS011;14572;43.120;1.178;2023-07-20T08:28:42;7.35;;;4.05;;
26391;SDS011;14572;43.120;1.178;2023-07-20T08:31:10;5.50;;;4.03;;
26391;SDS011;14572;43.120;1.178;2023-07-20T08:33:38;8.07;;;3.67;;
26391;SDS011;14572;43.120;1.178;2023-07-20T08:36:05;5.90;;;3.58;;
26391;SDS011;14572;43.120;1.178;2023-07-20T08:38:33;5.82;;;3.30;;
26391;SDS011;14572;43.120;1.178;2023-07-20T08:41:00;8.10;;;3.78;;
26391;SDS011;14572;43.120;1.178;2023-07-20T08:43:27;7.55;;;3.25;;
26391;SDS011;14572;43.120;1.178;2023-07-20T08:45:55;6.10;;;3.53;;
26391;SDS011;14572;43.120;1.178;2023-07-20T08:48:22;7.53;;;3.60;;
26391;SDS011;14572;43.120;1.178;2023-07-20T08:50:51;8.48;;;3.20;;
26391;SDS011;14572;43.120;1.178;2023-07-20T08:53:19;6.65;;;3.30;;
26391;SDS011;14572;43.120;1.178;2023-07-20T08:55:48;3.90;;;3.03;;
26391;SDS011;14572;43.120;1.178;2023-07-20T08:58:17;7.63;;;3.60;;
26391;SDS011;14572;43.120;1.178;2023-07-20T09:00:44;7.15;;;3.22;;
26391;SDS011;14572;43.120;1.178;2023-07-20T09:03:11;5.90;;;3.25;;
26391;SDS011;14572;43.120;1.178;2023-07-20T09:05:38;6.68;;;3.40;;
26391;SDS011;14572;43.120;1.178;2023-07-20T09:08:07;5.18;;;3.50;;
26391;SDS011;14572;43.120;1.178;2023-07-20T09:10:34;9.43;;;3.75;;
26391;SDS011;14572;43.120;1.178;2023-07-20T09:13:01;6.72;;;3.40;;
26391;SDS011;14572;43.120;1.178;2023-07-20T09:15:28;5.90;;;3.35;;
26391;SDS011;14572;43.120;1.178;2023-07-20T09:17:56;5.22;;;3.33;;
26391;SDS011;14572;43.120;1.178;2023-07-20T09:20:28;4.32;;;3.17;;
26391;SDS011;14572;43.120;1.178;2023-07-20T09:22:58;8.52;;;3.55;;
26391;SDS011;14572;43.120;1.178;2023-07-20T09:25:27;5.38;;;3.03;;
26391;SDS011;14572;43.120;1.178;2023-07-20T09:27:55;6.43;;;3.13;;
26391;SDS011;14572;43.120;1.178;2023-07-20T09:30:24;4.18;;;3.20;;
26391;SDS011;14572;43.120;1.178;2023-07-20T09:32:52;5.78;;;3.00;;
26391;SDS011;14572;43.120;1.178;2023-07-20T09:35:19;5.70;;;3.28;;
26391;SDS011;14572;43.120;1.178;2023-07-20T09:37:47;7.32;;;3.03;;
26391;SDS011;14572;43.120;1.178;2023-07-20T09:40:17;5.60;;;3.33;;
26391;SDS011;14572;43.120;1.178;2023-07-20T09:42:46;4.85;;;3.33;;
26391;SDS011;14572;43.120;1.178;2023-07-20T09:45:14;9.50;;;3.47;;
26391;SDS011;14572;43.120;1.178;2023-07-20T09:47:41;8.55;;;3.65;;
26391;SDS011;14572;43.120;1.178;2023-07-20T09:50:08;8.05;;;3.10;;
26391;SDS011;14572;43.120;1.178;2023-07-20T09:52:40;7.97;;;3.85;;
26391;SDS011;14572;43.120;1.178;2023-07-20T09:55:09;5.20;;;3.05;;
26391;SDS011;14572;43.120;1.178;2023-07-20T09:57:37;5.18;;;3.13;;
26391;SDS011;14572;43.120;1.178;2023-07-20T10:00:07;10.13;;;3.60;;
26391;SDS011;14572;43.120;1.178;2023-07-20T10:02:41;6.18;;;3.80;;
26391;SDS011;14572;43.120;1.178;2023-07-20T10:05:10;6.80;;;3.03;;
26391;SDS011;14572;43.120;1.178;2023-07-20T10:07:40;5.80;;;3.17;;
26391;SDS011;14572;43.120;1.178;2023-07-20T10:10:10;7.65;;;3.20;;
26391;SDS011;14572;43.120;1.178;2023-07-20T10:12:38;6.55;;;3.78;;
26391;SDS011;14572;43.120;1.178;2023-07-20T10:15:10;6.90;;;3.47;;
26391;SDS011;14572;43.120;1.178;2023-07-20T10:17:40;6.15;;;3.42;;
26391;SDS011;14572;43.120;1.178;2023-07-20T10:20:24;8.73;;;3.33;;
26391;SDS011;14572;43.120;1.178;2023-07-20T10:22:53;7.97;;;3.50;;
26391;SDS011;14572;43.120;1.178;2023-07-20T10:25:20;5.10;;;3.28;;
26391;SDS011;14572;43.120;1.178;2023-07-20T10:27:49;6.60;;;3.60;;
26391;SDS011;14572;43.120;1.178;2023-07-20T10:30:18;4.68;;;3.30;;
26391;SDS011;14572;43.120;1.178;2023-07-20T10:32:45;6.22;;;3.47;;
26391;SDS011;14572;43.120;1.178;2023-07-20T10:35:13;5.03;;;3.30;;
26391;SDS011;14572;43.120;1.178;2023-07-20T10:37:48;6.07;;;3.42;;
26391;SDS011;14572;43.120;1.178;2023-07-20T10:40:26;5.00;;;3.47;;
26391;SDS011;14572;43.120;1.178;2023-07-20T10:42:59;5.88;;;3.60;;
26391;SDS011;14572;43.120;1.178;2023-07-20T10:45:39;6.78;;;3.45;;
26391;SDS011;14572;43.120;1.178;2023-07-20T10:48:13;8.20;;;3.60;;
26391;SDS011;14572;43.120;1.178;2023-07-20T10:50:40;4.93;;;3.33;;
26391;SDS011;14572;43.120;1.178;2023-07-20T10:53:11;5.00;;;3.42;;
26391;SDS011;14572;43.120;1.178;2023-07-20T10:55:38;6.97;;;3.70;;
26391;SDS011;14572;43.120;1.178;2023-07-20T10:58:06;6.07;;;3.70;;
26391;SDS011;14572;43.120;1.178;2023-07-20T11:00:35;5.90;;;2.92;;
26391;SDS011;14572;43.120;1.178;2023-07-20T11:03:03;4.53;;;3.28;;
26391;SDS011;14572;43.120;1.178;2023-07-20T11:05:34;7.20;;;3.55;;
26391;SDS011;14572;43.120;1.178;2023-07-20T11:08:03;6.90;;;3.13;;
26391;SDS011;14572;43.120;1.178;2023-07-20T11:10:32;5.93;;;3.88;;
26391;SDS011;14572;43.120;1.178;2023-07-20T11:13:18;7.95;;;3.60;;
26391;SDS011;14572;43.120;1.178;2023-07-20T11:15:46;6.15;;;3.60;;
26391;SDS011;14572;43.120;1.178;2023-07-20T11:18:15;7.30;;;3.53;;
26391;SDS011;14572;43.120;1.178;2023-07-20T11:20:43;4.65;;;3.25;;
26391;SDS011;14572;43.120;1.178;2023-07-20T11:23:10;4.82;;;3.13;;
26391;SDS011;14572;43.120;1.178;2023-07-20T11:25:40;4.72;;;3.58;;
26391;SDS011;14572;43.120;1.178;2023-07-20T11:28:07;6.40;;;3.25;;
26391;SDS011;14572;43.120;1.178;2023-07-20T11:30:36;6.38;;;3.80;;
26391;SDS011;14572;43.120;1.178;2023-07-20T11:33:04;6.55;;;3.53;;
26391;SDS011;14572;43.120;1.178;2023-07-20T11:35:36;5.25;;;3.50;;
26391;SDS011;14572;43.120;1.178;2023-07-20T11:38:08;6.10;;;3.38;;
26391;SDS011;14572;43.120;1.178;2023-07-20T11:40:35;7.80;;;3.55;;
26391;SDS011;14572;43.120;1.178;2023-07-20T11:43:02;6.07;;;3.75;;
26391;SDS011;14572;43.120;1.178;2023-07-20T11:45:29;4.88;;;3.80;;
26391;SDS011;14572;43.120;1.178;2023-07-20T11:47:58;5.30;;;3.72;;
26391;SDS011;14572;43.120;1.178;2023-07-20T11:50:25;7.85;;;3.47;;
26391;SDS011;14572;43.120;1.178;2023-07-20T11:52:54;5.53;;;3.30;;
26391;SDS011;14572;43.120;1.178;2023-07-20T11:55:21;6.85;;;3.60;;
26391;SDS011;14572;43.120;1.178;2023-07-20T11:58:01;7.65;;;3.65;;
26391;SDS011;14572;43.120;1.178;2023-07-20T12:00:28;8.50;;;3.90;;
26391;SDS011;14572;43.120;1.178;2023-07-20T12:02:55;4.60;;;3.40;;
26391;SDS011;14572;43.120;1.178;2023-07-20T12:05:22;9.27;;;3.30;;
26391;SDS011;14572;43.120;1.178;2023-07-20T12:07:49;5.57;;;3.33;;
26391;SDS011;14572;43.120;1.178;2023-07-20T12:10:23;6.07;;;3.50;;
26391;SDS011;14572;43.120;1.178;2023-07-20T12:12:51;5.60;;;3.92;;
26391;SDS011;14572;43.120;1.178;2023-07-20T12:15:19;6.32;;;3.53;;
26391;SDS011;14572;43.120;1.178;2023-07-20T12:17:49;6.10;;;4.20;;
26391;SDS011;14572;43.120;1.178;2023-07-20T12:20:24;6.78;;;3.45;;
26391;SDS011;14572;43.120;1.178;2023-07-20T12:22:51;9.23;;;3.53;;
26391;SDS011;14572;43.120;1.178;2023-07-20T12:25:21;6.68;;;3.40;;
26391;SDS011;14572;43.120;1.178;2023-07-20T12:27:48;5.47;;;3.70;;
26391;SDS011;14572;43.120;1.178;2023-07-20T12:30:15;6.95;;;3.63;;
26391;SDS011;14572;43.120;1.178;2023-07-20T12:32:42;8.60;;;3.67;;
26391;SDS011;14572;43.120;1.178;2023-07-20T12:35:09;4.95;;;3.00;;
26391;SDS011;14572;43.120;1.178;2023-07-20T12:37:36;4.90;;;3.17;;
26391;SDS011;14572;43.120;1.178;2023-07-20T12:40:04;5.35;;;3.20;;
26391;SDS011;14572;43.120;1.178;2023-07-20T12:42:38;4.63;;;3.17;;
26391;SDS011;14572;43.120;1.178;2023-07-20T12:45:05;5.68;;;3.03;;
26391;SDS011;14572;43.120;1.178;2023-07-20T12:47:33;4.78;;;3.08;;
26391;SDS011;14572;43.120;1.178;2023-07-20T12:50:00;5.95;;;3.17;;
26391;SDS011;14572;43.120;1.178;2023-07-20T12:52:31;5.60;;;3.45;;
26391;SDS011;14572;43.120;1.178;2023-07-20T12:54:58;5.68;;;3.40;;
26391;SDS011;14572;43.120;1.178;2023-07-20T12:57:26;8.48;;;3.80;;
26391;SDS011;14572;43.120;1.178;2023-07-20T12:59:54;4.47;;;3.35;;
26391;SDS011;14572;43.120;1.178;2023-07-20T13:02:21;5.15;;;3.28;;
26391;SDS011;14572;43.120;1.178;2023-07-20T13:04:49;4.80;;;3.45;;
26391;SDS011;14572;43.120;1.178;2023-07-20T13:07:16;5.40;;;3.30;;
26391;SDS011;14572;43.120;1.178;2023-07-20T13:09:43;5.50;;;3.15;;
26391;SDS011;14572;43.120;1.178;2023-07-20T13:12:10;5.40;;;3.25;;
26391;SDS011;14572;43.120;1.178;2023-07-20T13:14:38;4.90;;;3.53;;
26391;SDS011;14572;43.120;1.178;2023-07-20T13:17:06;7.90;;;3.63;;
26391;SDS011;14572;43.120;1.178;2023-07-20T13:19:33;4.93;;;3.30;;
26391;SDS011;14572;43.120;1.178;2023-07-20T13:22:00;6.88;;;3.25;;
26391;SDS011;14572;43.120;1.178;2023-07-20T13:24:27;7.13;;;3.28;;
26391;SDS011;14572;43.120;1.178;2023-07-20T13:26:54;5.13;;;3.40;;
26391;SDS011;14572;43.120;1.178;2023-07-20T13:29:21;5.47;;;3.35;;
26391;SDS011;14572;43.120;1.178;2023-07-20T13:31:49;6.57;;;3.50;;
26391;SDS011;14572;43.120;1.178;2023-07-20T13:34:18;5.40;;;3.22;;
26391;SDS011;14572;43.120;1.178;2023-07-20T13:36:45;7.13;;;3.58;;
26391;SDS011;14572;43.120;1.178;2023-07-20T13:39:12;5.43;;;3.72;;
26391;SDS011;14572;43.120;1.178;2023-07-20T13:41:39;6.00;;;3.22;;
26391;SDS011;14572;43.120;1.178;2023-07-20T13:44:06;5.05;;;3.15;;
26391;SDS011;14572;43.120;1.178;2023-07-20T13:46:33;6.97;;;3.38;;
26391;SDS011;14572;43.120;1.178;2023-07-20T13:49:00;7.22;;;3.38;;
26391;SDS011;14572;43.120;1.178;2023-07-20T13:51:29;5.30;;;3.08;;
26391;SDS011;14572;43.120;1.178;2023-07-20T13:53:56;5.80;;;3.45;;
26391;SDS011;14572;43.120;1.178;2023-07-20T13:56:24;6.80;;;3.30;;
26391;SDS011;14572;43.120;1.178;2023-07-20T13:58:51;7.72;;;3.35;;
26391;SDS011;14572;43.120;1.178;2023-07-20T14:01:18;6.38;;;3.50;;
26391;SDS011;14572;43.120;1.178;2023-07-20T14:03:45;5.18;;;3.42;;
26391;SDS011;14572;43.120;1.178;2023-07-20T14:06:12;6.57;;;3.20;;
26391;SDS011;14572;43.120;1.178;2023-07-20T14:08:40;5.00;;;3.38;;
26391;SDS011;14572;43.120;1.178;2023-07-20T14:11:07;5.10;;;3.30;;
26391;SDS011;14572;43.120;1.178;2023-07-20T14:13:34;4.70;;;3.10;;
26391;SDS011;14572;43.120;1.178;2023-07-20T14:16:01;4.70;;;3.15;;
26391;SDS011;14572;43.120;1.178;2023-07-20T14:18:29;4.82;;;3.50;;
26391;SDS011;14572;43.120;1.178;2023-07-20T14:20:56;7.43;;;3.58;;
26391;SDS011;14572;43.120;1.178;2023-07-20T14:23:23;6.88;;;3.28;;
26391;SDS011;14572;43.120;1.178;2023-07-20T14:25:51;5.38;;;3.28;;
26391;SDS011;14572;43.120;1.178;2023-07-20T14:28:18;6.90;;;2.67;;
26391;SDS011;14572;43.120;1.178;2023-07-20T14:30:45;10.73;;;3.33;;
26391;SDS011;14572;43.120;1.178;2023-07-20T14:33:12;8.55;;;2.75;;
26391;SDS011;14572;43.120;1.178;2023-07-20T14:35:39;4.88;;;3.30;;
26391;SDS011;14572;43.120;1.178;2023-07-20T14:38:06;6.32;;;3.15;;
26391;SDS011;14572;43.120;1.178;2023-07-20T14:40:33;8.13;;;3.28;;
26391;SDS011;14572;43.120;1.178;2023-07-20T14:43:02;5.75;;;3.15;;
26391;SDS011;14572;43.120;1.178;2023-07-20T14:45:29;5.90;;;3.47;;
26391;SDS011;14572;43.120;1.178;2023-07-20T14:47:56;5.93;;;2.97;;
26391;SDS011;14572;43.120;1.178;2023-07-20T14:50:23;7.57;;;2.97;;
26391;SDS011;14572;43.120;1.178;2023-07-20T14:52:50;4.28;;;2.83;;
26391;SDS011;14572;43.120;1.178;2023-07-20T14:55:17;5.30;;;2.97;;
26391;SDS011;14572;43.120;1.178;2023-07-20T14:57:44;3.75;;;2.90;;
26391;SDS011;14572;43.120;1.178;2023-07-20T15:00:14;3.67;;;2.65;;
26391;SDS011;14572;43.120;1.178;2023-07-20T15:02:42;3.42;;;2.80;;
26391;SDS011;14572;43.120;1.178;2023-07-20T15:05:09;3.13;;;2.53;;
26391;SDS011;14572;43.120;1.178;2023-07-20T15:07:37;7.40;;;2.72;;
26391;SDS011;14572;43.120;1.178;2023-07-20T15:10:04;3.20;;;2.53;;
26391;SDS011;14572;43.120;1.178;2023-07-20T15:12:32;3.47;;;2.47;;
26391;SDS011;14572;43.120;1.178;2023-07-20T15:15:03;5.10;;;2.20;;
26391;SDS011;14572;43.120;1.178;2023-07-20T15:17:33;4.65;;;2.47;;
26391;SDS011;14572;43.120;1.178;2023-07-20T15:20:00;4.53;;;2.60;;
26391;SDS011;14572;43.120;1.178;2023-07-20T15:22:29;5.93;;;2.78;;
26391;SDS011;14572;43.120;1.178;2023-07-20T15:24:57;3.97;;;2.65;;
26391;SDS011;14572;43.120;1.178;2023-07-20T15:27:24;4.22;;;2.65;;
26391;SDS011;14572;43.120;1.178;2023-07-20T15:29:51;6.95;;;2.70;;
26391;SDS011;14572;43.120;1.178;2023-07-20T15:32:18;3.20;;;2.40;;
26391;SDS011;14572;43.120;1.178;2023-07-20T15:34:47;5.47;;;2.70;;
26391;SDS011;14572;43.120;1.178;2023-07-20T15:37:14;4.32;;;2.90;;
26391;SDS011;14572;43.120;1.178;2023-07-20T15:39:41;6.70;;;2.90;;
26391;SDS011;14572;43.120;1.178;2023-07-20T15:42:08;5.85;;;2.65;;
26391;SDS011;14572;43.120;1.178;2023-07-20T15:44:35;4.55;;;2.63;;
26391;SDS011;14572;43.120;1.178;2023-07-20T15:47:02;8.38;;;3.22;;
26391;SDS011;14572;43.120;1.178;2023-07-20T15:49:31;4.85;;;2.90;;
26391;SDS011;14572;43.120;1.178;2023-07-20T15:52:00;5.05;;;3.35;;
26391;SDS011;14572;43.120;1.178;2023-07-20T15:54:27;4.20;;;3.20;;
26391;SDS011;14572;43.120;1.178;2023-07-20T15:56:54;6.00;;;2.70;;
26391;SDS011;14572;43.120;1.178;2023-07-20T15:59:21;4.80;;;2.75;;
26391;SDS011;14572;43.120;1.178;2023-07-20T16:01:48;6.90;;;3.13;;
26391;SDS011;14572;43.120;1.178;2023-07-20T16:04:15;7.10;;;3.28;;
26391;SDS011;14572;43.120;1.178;2023-07-20T16:06:42;3.25;;;2.67;;
26391;SDS011;14572;43.120;1.178;2023-07-20T16:09:10;5.00;;;3.33;;
26391;SDS011;14572;43.120;1.178;2023-07-20T16:11:38;4.22;;;2.88;;
